sensor_id;sensor_type;location;lat;lon;timestamp;pressure;altitude;pressure_sealevel;temperature;humidity
61645;BME280;47553;52.428;13.382;2022-09-09T00:01:52;100500.38;;;14.05;100.00
61645;BME280;47553;52.428;13.382;2022-09-09T00:03:59;100500.16;;;14.08;100.00
61645;BME280;47553;52.428;13.382;2022-09-09T00:06:05;100503.06;;;14.05;100.00
61645;BME280;47553;52.428;13.382;2022-09-09T00:08:17;100513.69;;;14.07;100.00
61645;BME280;47553;52.428;13.382;2022-09-09T00:10:25;100511.13;;;14.05;100.00
61645;BME280;47553;52.428;13.382;2022-09-09T00:12:42;100507.47;;;14.06;100.00
61645;BME280;47553;52.428;13.382;2022-09-09T00:14:52;100505.75;;;14.05;100.00
61645;BME280;47553;52.428;13.382;2022-09-09T00:17:01;100507.69;;;14.03;100.00
61645;BME280;47553;52.428;13.382;2022-09-09T00:19:07;100502.31;;;14.03;100.00
61645;BME280;47553;52.428;13.382;2022-09-09T00:21:14;100500.13;;;13.97;100.00
61645;BME280;47553;52.428;13.382;2022-09-09T00:23:23;100501.94;;;13.97;100.00
61645;BME280;47553;52.428;13.382;2022-09-09T00:25:29;100492.31;;;13.94;100.00
61645;BME280;47553;52.428;13.382;2022-09-09T00:27:40;100493.03;;;13.96;100.00
61645;BME280;47553;52.428;13.382;2022-09-09T00:29:43;100489.84;;;13.91;100.00
61645;BME280;47553;52.428;13.382;2022-09-09T00:31:45;100491.34;;;13.95;100.00
61645;BME280;47553;52.428;13.382;2022-09-09T00:33:49;100486.72;;;13.97;100.00
61645;BME280;47553;52.428;13.382;2022-09-09T00:35:53;100482.66;;;13.91;100.00
61645;BME280;47553;52.428;13.382;2022-09-09T00:38:01;100483.53;;;13.92;100.00
61645;BME280;47553;52.428;13.382;2022-09-09T00:40:08;100485.47;;;13.90;100.00
61645;BME280;47553;52.428;13.382;2022-09-09T00:42:20;100489.84;;;13.91;100.00
61645;BME280;47553;52.428;13.382;2022-09-09T00:44:30;100480.09;;;13.90;100.00
61645;BME280;47553;52.428;13.382;2022-09-09T00:46:46;100484.72;;;13.88;100.00
61645;BME280;47553;52.428;13.382;2022-09-09T00:48:58;100484.06;;;13.84;100.00
61645;BME280;47553;52.428;13.382;2022-09-09T00:51:06;100487.59;;;13.85;100.00
61645;BME280;47553;52.428;13.382;2022-09-09T00:53:21;100490.13;;;13.75;100.00
61645;BME280;47553;52.428;13.382;2022-09-09T00:55:31;100481.69;;;13.69;100.00
61645;BME280;47553;52.428;13.382;2022-09-09T00:57:36;100489.72;;;13.69;100.00
61645;BME280;47553;52.428;13.382;2022-09-09T00:59:45;100480.00;;;13.68;100.00
61645;BME280;47553;52.428;13.382;2022-09-09T01:01:48;100493.91;;;13.73;100.00
61645;BME280;47553;52.428;13.382;2022-09-09T01:03:53;100490.72;;;13.68;100.00
61645;BME280;47553;52.428;13.382;2022-09-09T01:06:01;100493.84;;;13.61;100.00
61645;BME280;47553;52.428;13.382;2022-09-09T01:08:10;100494.53;;;13.52;100.00
61645;BME280;47553;52.428;13.382;2022-09-09T01:10:23;100496.88;;;13.57;100.00
61645;BME280;47553;52.428;13.382;2022-09-09T01:12:38;100496.47;;;13.50;100.00
61645;BME280;47553;52.428;13.382;2022-09-09T01:14:44;100494.97;;;13.46;100.00
61645;BME280;47553;52.428;13.382;2022-09-09T01:16:48;100499.38;;;13.47;100.00
61645;BME280;47553;52.428;13.382;2022-09-09T01:18:53;100502.06;;;13.47;100.00
61645;BME280;47553;52.428;13.382;2022-09-09T01:21:03;100500.00;;;13.51;100.00
61645;BME280;47553;52.428;13.382;2022-09-09T01:23:23;100511.13;;;13.57;100.00
61645;BME280;47553;52.428;13.382;2022-09-09T01:26:14;100500.41;;;13.57;100.00
61645;BME280;47553;52.428;13.382;2022-09-09T01:28:21;100500.41;;;13.57;100.00
61645;BME280;47553;52.428;13.382;2022-09-09T01:30:24;100497.22;;;13.52;100.00
61645;BME280;47553;52.428;13.382;2022-09-09T01:32:41;100504.97;;;13.44;100.00
61645;BME280;47553;52.428;13.382;2022-09-09T01:34:43;100497.22;;;13.52;100.00
61645;BME280;47553;52.428;13.382;2022-09-09T01:36:49;100497.94;;;13.54;100.00
61645;BME280;47553;52.428;13.382;2022-09-09T01:38:53;100491.84;;;13.52;100.00
61645;BME280;47553;52.428;13.382;2022-09-09T01:40:56;100497.44;;;13.49;100.00
61645;BME280;47553;52.428;13.382;2022-09-09T01:42:57;100500.84;;;13.51;100.00
61645;BME280;47553;52.428;13.382;2022-09-09T01:44:59;100487.69;;;13.48;100.00
61645;BME280;47553;52.428;13.382;2022-09-09T01:47:00;100492.06;;;13.49;100.00
61645;BME280;47553;52.428;13.382;2022-09-09T01:49:05;100494.66;;;13.51;100.00
61645;BME280;47553;52.428;13.382;2022-09-09T01:51:08;100493.78;;;13.50;100.00
61645;BME280;47553;52.428;13.382;2022-09-09T01:53:10;100494.97;;;13.46;100.00
61645;BME280;47553;52.428;13.382;2022-09-09T01:55:12;100497.66;;;13.46;100.00
61645;BME280;47553;52.428;13.382;2022-09-09T01:57:20;100497.66;;;13.46;100.00
61645;BME280;47553;52.428;13.382;2022-09-09T01:59:45;100496.19;;;13.42;100.00
61645;BME280;47553;52.428;13.382;2022-09-09T02:02:02;100490.38;;;13.36;100.00
61645;BME280;47553;52.428;13.382;2022-09-09T02:04:13;100505.81;;;13.32;100.00
61645;BME280;47553;52.428;13.382;2022-09-09T02:06:26;100498.88;;;13.29;100.00
61645;BME280;47553;52.428;13.382;2022-09-09T02:08:35;100510.72;;;13.38;100.00
61645;BME280;47553;52.428;13.382;2022-09-09T02:10:43;100503.13;;;13.45;100.00
61645;BME280;47553;52.428;13.382;2022-09-09T02:12:51;100509.47;;;13.31;100.00
61645;BME280;47553;52.428;13.382;2022-09-09T02:14:56;100506.91;;;13.29;100.00
61645;BME280;47553;52.428;13.382;2022-09-09T02:17:03;100503.50;;;13.27;100.00
61645;BME280;47553;52.428;13.382;2022-09-09T02:19:11;100507.13;;;13.26;100.00
61645;BME280;47553;52.428;13.382;2022-09-09T02:21:14;100503.16;;;13.32;100.00
61645;BME280;47553;52.428;13.382;2022-09-09T02:23:17;100493.41;;;13.31;100.00
61645;BME280;47553;52.428;13.382;2022-09-09T02:25:21;100502.41;;;13.30;100.00
61645;BME280;47553;52.428;13.382;2022-09-09T02:27:23;100501.56;;;13.29;100.00
61645;BME280;47553;52.428;13.382;2022-09-09T02:29:28;100497.28;;;13.27;100.00
61645;BME280;47553;52.428;13.382;2022-09-09T02:31:33;100498.47;;;13.23;100.00
61645;BME280;47553;52.428;13.382;2022-09-09T02:33:38;100506.72;;;13.20;100.00
61645;BME280;47553;52.428;13.382;2022-09-09T02:35:42;100507.34;;;13.23;100.00
61645;BME280;47553;52.428;13.382;2022-09-09T02:37:44;100504.34;;;13.28;100.00
61645;BME280;47553;52.428;13.382;2022-09-09T02:39:46;100504.97;;;13.31;100.00
61645;BME280;47553;52.428;13.382;2022-09-09T02:41:48;100502.19;;;13.33;100.00
61645;BME280;47553;52.428;13.382;2022-09-09T02:43:49;100497.56;;;13.35;100.00
61645;BME280;47553;52.428;13.382;2022-09-09T02:45:57;100495.63;;;13.37;100.00
61645;BME280;47553;52.428;13.382;2022-09-09T02:48:09;100504.88;;;13.33;100.00
61645;BME280;47553;52.428;13.382;2022-09-09T02:50:13;100504.88;;;13.33;100.00
61645;BME280;47553;52.428;13.382;2022-09-09T02:52:19;100497.56;;;13.35;100.00
61645;BME280;47553;52.428;13.382;2022-09-09T02:54:26;100500.47;;;13.32;100.00
61645;BME280;47553;52.428;13.382;2022-09-09T02:56:31;100502.19;;;13.33;100.00
61645;BME280;47553;52.428;13.382;2022-09-09T02:58:35;100500.81;;;13.27;100.00
61645;BME280;47553;52.428;13.382;2022-09-09T03:00:38;100504.56;;;13.25;100.00
61645;BME280;47553;52.428;13.382;2022-09-09T03:02:41;100511.22;;;13.19;100.00
61645;BME280;47553;52.428;13.382;2022-09-09T03:04:43;100514.88;;;13.18;100.00
61645;BME280;47553;52.428;13.382;2022-09-09T03:06:45;100511.84;;;13.23;100.00
61645;BME280;47553;52.428;13.382;2022-09-09T03:08:46;100515.72;;;13.19;100.00
61645;BME280;47553;52.428;13.382;2022-09-09T03:10:50;100518.50;;;13.17;100.00
61645;BME280;47553;52.428;13.382;2022-09-09T03:12:51;100516.34;;;13.22;100.00
61645;BME280;47553;52.428;13.382;2022-09-09T03:14:53;100517.88;;;13.14;100.00
61645;BME280;47553;52.428;13.382;2022-09-09T03:16:54;100524.19;;;13.13;100.00
61645;BME280;47553;52.428;13.382;2022-09-09T03:18:57;100518.94;;;13.11;100.00
61645;BME280;47553;52.428;13.382;2022-09-09T03:20:58;100520.22;;;13.06;100.00
61645;BME280;47553;52.428;13.382;2022-09-09T03:23:00;100520.66;;;12.99;100.00
61645;BME280;47553;52.428;13.382;2022-09-09T03:25:02;100528.47;;;13.03;100.00
61645;BME280;47553;52.428;13.382;2022-09-09T03:27:03;100526.22;;;13.09;100.00
61645;BME280;47553;52.428;13.382;2022-09-09T03:29:05;100530.31;;;13.15;100.00
61645;BME280;47553;52.428;13.382;2022-09-09T03:31:06;100539.31;;;13.14;100.00
61645;BME280;47553;52.428;13.382;2022-09-09T03:33:08;100527.63;;;13.15;100.00
61645;BME280;47553;52.428;13.382;2022-09-09T03:35:10;100530.31;;;13.15;100.00
61645;BME280;47553;52.428;13.382;2022-09-09T03:37:12;100532.88;;;13.16;100.00
61645;BME280;47553;52.428;13.382;2022-09-09T03:39:13;100525.56;;;13.18;100.00
61645;BME280;47553;52.428;13.382;2022-09-09T03:41:15;100523.25;;;13.14;100.00
61645;BME280;47553;52.428;13.382;2022-09-09T03:43:16;100524.31;;;12.98;100.00
61645;BME280;47553;52.428;13.382;2022-09-09T03:45:18;100536.50;;;13.03;100.00
61645;BME280;47553;52.428;13.382;2022-09-09T03:47:20;100531.16;;;13.03;100.00
61645;BME280;47553;52.428;13.382;2022-09-09T03:49:22;100537.13;;;13.06;100.00
61645;BME280;47553;52.428;13.382;2022-09-09T03:51:25;100538.75;;;13.09;100.00
61645;BME280;47553;52.428;13.382;2022-09-09T03:53:26;100537.78;;;13.10;100.00
61645;BME280;47553;52.428;13.382;2022-09-09T03:55:28;100531.38;;;13.12;100.00
61645;BME280;47553;52.428;13.382;2022-09-09T03:57:30;100522.91;;;13.06;100.00
61645;BME280;47553;52.428;13.382;2022-09-09T03:59:31;100526.53;;;13.05;100.00
61645;BME280;47553;52.428;13.382;2022-09-09T04:01:33;100522.38;;;13.00;100.00
61645;BME280;47553;52.428;13.382;2022-09-09T04:03:34;100527.63;;;13.02;100.00
61645;BME280;47553;52.428;13.382;2022-09-09T04:05:36;100518.94;;;12.98;100.00
61645;BME280;47553;52.428;13.382;2022-09-09T04:07:39;100519.38;;;12.92;100.00
61645;BME280;47553;52.428;13.382;2022-09-09T04:09:40;100522.81;;;12.94;100.00
61645;BME280;47553;52.428;13.382;2022-09-09T04:11:41;100518.66;;;12.90;100.00
61645;BME280;47553;52.428;13.382;2022-09-09T04:13:43;100519.59;;;12.89;100.00
61645;BME280;47553;52.428;13.382;2022-09-09T04:15:50;100515.75;;;12.93;100.00
61645;BME280;47553;52.428;13.382;2022-09-09T04:17:52;100523.66;;;12.95;100.00
61645;BME280;47553;52.428;13.382;2022-09-09T04:19:54;100524.75;;;12.92;100.00
61645;BME280;47553;52.428;13.382;2022-09-09T04:21:55;100526.56;;;12.92;100.00
61645;BME280;47553;52.428;13.382;2022-09-09T04:23:58;100535.00;;;12.98;100.00
61645;BME280;47553;52.428;13.382;2022-09-09T04:26:01;100532.88;;;13.04;100.00
61645;BME280;47553;52.428;13.382;2022-09-09T04:28:02;100540.69;;;13.07;100.00
61645;BME280;47553;52.428;13.382;2022-09-09T04:30:04;100537.78;;;13.10;100.00
61645;BME280;47553;52.428;13.382;2022-09-09T04:32:06;100537.78;;;13.10;100.00
61645;BME280;47553;52.428;13.382;2022-09-09T04:34:08;100537.03;;;13.08;100.00
61645;BME280;47553;52.428;13.382;2022-09-09T04:36:09;100535.09;;;13.10;100.00
61645;BME280;47553;52.428;13.382;2022-09-09T04:38:11;100535.22;;;13.08;100.00
61645;BME280;47553;52.428;13.382;2022-09-09T04:40:14;100544.53;;;13.03;100.00
61645;BME280;47553;52.428;13.382;2022-09-09T04:42:15;100547.00;;;13.06;100.00
61645;BME280;47553;52.428;13.382;2022-09-09T04:44:17;100544.84;;;13.11;100.00
61645;BME280;47553;52.428;13.382;2022-09-09T04:46:19;100546.78;;;13.09;100.00
61645;BME280;47553;52.428;13.382;2022-09-09T04:48:20;100550.97;;;13.00;100.00
61645;BME280;47553;52.428;13.382;2022-09-09T04:50:22;100547.75;;;13.08;100.00
61645;BME280;47553;52.428;13.382;2022-09-09T04:52:24;100554.41;;;13.15;100.00
61645;BME280;47553;52.428;13.382;2022-09-09T04:54:25;100556.81;;;13.43;100.00
61645;BME280;47553;52.428;13.382;2022-09-09T04:56:28;100555.47;;;13.61;100.00
61645;BME280;47553;52.428;13.382;2022-09-09T04:58:30;100557.75;;;13.79;100.00
61645;BME280;47553;52.428;13.382;2022-09-09T05:00:31;100549.56;;;13.93;100.00
61645;BME280;47553;52.428;13.382;2022-09-09T05:02:36;100556.13;;;14.13;100.00
61645;BME280;47553;52.428;13.382;2022-09-09T05:04:38;100541.50;;;14.17;100.00
61645;BME280;47553;52.428;13.382;2022-09-09T05:06:40;100550.25;;;14.54;100.00
61645;BME280;47553;52.428;13.382;2022-09-09T05:08:42;100559.38;;;14.75;100.00
61645;BME280;47553;52.428;13.382;2022-09-09T05:10:44;100551.09;;;15.23;100.00
61645;BME280;47553;52.428;13.382;2022-09-09T05:12:53;100558.66;;;15.29;100.00
61645;BME280;47553;52.428;13.382;2022-09-09T05:14:55;100555.72;;;15.43;100.00
61645;BME280;47553;52.428;13.382;2022-09-09T05:16:56;100565.25;;;15.47;100.00
61645;BME280;47553;52.428;13.382;2022-09-09T05:18:58;100556.94;;;15.50;100.00
61645;BME280;47553;52.428;13.382;2022-09-09T05:20:59;100552.41;;;15.73;100.00
61645;BME280;47553;52.428;13.382;2022-09-09T05:23:01;100551.28;;;15.76;100.00
61645;BME280;47553;52.428;13.382;2022-09-09T05:25:02;100560.09;;;15.78;100.00
61645;BME280;47553;52.428;13.382;2022-09-09T05:27:04;100547.97;;;15.83;100.00
61645;BME280;47553;52.428;13.382;2022-09-09T05:29:07;100552.41;;;15.73;100.00
61645;BME280;47553;52.428;13.382;2022-09-09T05:31:10;100549.84;;;15.72;100.00
61645;BME280;47553;52.428;13.382;2022-09-09T05:33:12;100542.97;;;15.79;100.00
61645;BME280;47553;52.428;13.382;2022-09-09T05:35:14;100545.56;;;15.69;100.00
61645;BME280;47553;52.428;13.382;2022-09-09T05:37:15;100543.34;;;16.06;100.00
61645;BME280;47553;52.428;13.382;2022-09-09T05:39:17;100555.47;;;16.33;100.00
61645;BME280;47553;52.428;13.382;2022-09-09T05:41:19;100538.22;;;16.35;100.00
61645;BME280;47553;52.428;13.382;2022-09-09T05:43:21;100548.84;;;16.37;100.00
61645;BME280;47553;52.428;13.382;2022-09-09T05:45:23;100549.72;;;16.58;100.00
61645;BME280;47553;52.428;13.382;2022-09-09T05:47:25;100550.69;;;16.36;100.00
61645;BME280;47553;52.428;13.382;2022-09-09T05:49:26;100554.44;;;16.45;100.00
61645;BME280;47553;52.428;13.382;2022-09-09T05:51:29;100553.56;;;16.24;100.00
61645;BME280;47553;52.428;13.382;2022-09-09T05:53:31;100561.44;;;16.68;100.00
61645;BME280;47553;52.428;13.382;2022-09-09T05:55:32;100557.19;;;16.34;100.00
61645;BME280;47553;52.428;13.382;2022-09-09T05:57:34;100562.00;;;16.51;100.00
61645;BME280;47553;52.428;13.382;2022-09-09T05:59:35;100559.22;;;16.41;100.00
61645;BME280;47553;52.428;13.382;2022-09-09T06:01:38;100571.63;;;16.54;100.00
61645;BME280;47553;52.428;13.382;2022-09-09T06:03:42;100564.94;;;16.48;100.00
61645;BME280;47553;52.428;13.382;2022-09-09T06:05:44;100572.03;;;16.49;100.00
61645;BME280;47553;52.428;13.382;2022-09-09T06:07:45;100567.31;;;16.62;100.00
61645;BME280;47553;52.428;13.382;2022-09-09T06:09:47;100567.03;;;16.65;100.00
61645;BME280;47553;52.428;13.382;2022-09-09T06:11:48;100571.66;;;16.74;100.00
61645;BME280;47553;52.428;13.382;2022-09-09T06:13:50;100573.41;;;16.64;100.00
61645;BME280;47553;52.428;13.382;2022-09-09T06:15:52;100571.25;;;16.58;100.00
61645;BME280;47553;52.428;13.382;2022-09-09T06:17:55;100578.28;;;16.50;100.00
61645;BME280;47553;52.428;13.382;2022-09-09T06:19:57;100574.28;;;16.44;100.00
61645;BME280;47553;52.428;13.382;2022-09-09T06:21:58;100579.38;;;16.47;100.00
61645;BME280;47553;52.428;13.382;2022-09-09T06:24:00;100579.31;;;16.37;100.00
61645;BME280;47553;52.428;13.382;2022-09-09T06:26:04;100571.78;;;16.52;100.00
61645;BME280;47553;52.428;13.382;2022-09-09T06:28:05;100579.59;;;16.55;100.00
61645;BME280;47553;52.428;13.382;2022-09-09T06:30:08;100574.00;;;16.47;100.00
61645;BME280;47553;52.428;13.382;2022-09-09T06:32:10;100580.91;;;16.40;100.00
61645;BME280;47553;52.428;13.382;2022-09-09T06:34:12;100584.84;;;16.36;100.00
61645;BME280;47553;52.428;13.382;2022-09-09T06:36:16;100580.28;;;16.15;100.00
61645;BME280;47553;52.428;13.382;2022-09-09T06:38:18;100584.22;;;16.00;100.00
61645;BME280;47553;52.428;13.382;2022-09-09T06:40:19;100587.63;;;16.13;100.00
61645;BME280;47553;52.428;13.382;2022-09-09T06:42:21;100588.56;;;16.24;100.00
61645;BME280;47553;52.428;13.382;2022-09-09T06:44:22;100584.22;;;16.11;100.00
61645;BME280;47553;52.428;13.382;2022-09-09T06:46:26;100583.63;;;15.97;100.00
61645;BME280;47553;52.428;13.382;2022-09-09T06:48:28;100587.09;;;16.20;100.00
61645;BME280;47553;52.428;13.382;2022-09-09T06:50:31;100586.00;;;16.22;100.00
61645;BME280;47553;52.428;13.382;2022-09-09T06:52:33;100586.34;;;16.29;100.00
61645;BME280;47553;52.428;13.382;2022-09-09T06:54:34;100580.44;;;16.35;100.00
61645;BME280;47553;52.428;13.382;2022-09-09T06:56:36;100581.25;;;16.67;100.00
61645;BME280;47553;52.428;13.382;2022-09-09T06:58:40;100578.78;;;16.64;100.00
61645;BME280;47553;52.428;13.382;2022-09-09T07:00:41;100578.50;;;16.78;100.00
61645;BME280;47553;52.428;13.382;2022-09-09T07:02:43;100580.91;;;16.82;100.00
61645;BME280;47553;52.428;13.382;2022-09-09T07:04:44;100580.91;;;16.82;100.00
61645;BME280;47553;52.428;13.382;2022-09-09T07:06:47;100587.91;;;16.84;100.00
61645;BME280;47553;52.428;13.382;2022-09-09T07:08:49;100597.03;;;16.93;100.00
61645;BME280;47553;52.428;13.382;2022-09-09T07:11:02;100589.75;;;17.14;100.00
61645;BME280;47553;52.428;13.382;2022-09-09T07:13:03;100594.78;;;17.28;100.00
61645;BME280;47553;52.428;13.382;2022-09-09T07:15:05;100590.13;;;17.30;100.00
61645;BME280;47553;52.428;13.382;2022-09-09T07:17:07;100591.38;;;17.26;100.00
61645;BME280;47553;52.428;13.382;2022-09-09T07:19:09;100588.78;;;17.15;100.00
61645;BME280;47553;52.428;13.382;2022-09-09T07:21:11;100593.81;;;17.29;99.57
61645;BME280;47553;52.428;13.382;2022-09-09T07:23:15;100591.19;;;17.18;99.75
61645;BME280;47553;52.428;13.382;2022-09-09T07:25:16;100591.38;;;17.26;99.63
61645;BME280;47553;52.428;13.382;2022-09-09T07:27:18;100592.16;;;17.48;99.79
61645;BME280;47553;52.428;13.382;2022-09-09T07:29:19;100595.41;;;17.41;99.28
61645;BME280;47553;52.428;13.382;2022-09-09T07:31:23;100593.28;;;17.45;98.25
61645;BME280;47553;52.428;13.382;2022-09-09T07:33:25;100591.34;;;17.57;97.07
61645;BME280;47553;52.428;13.382;2022-09-09T07:35:27;100606.47;;;17.69;97.04
61645;BME280;47553;52.428;13.382;2022-09-09T07:37:29;100607.66;;;17.95;96.84
61645;BME280;47553;52.428;13.382;2022-09-09T07:39:32;100603.41;;;18.02;97.00
61645;BME280;47553;52.428;13.382;2022-09-09T07:41:36;100601.72;;;18.01;93.96
61645;BME280;47553;52.428;13.382;2022-09-09T07:43:38;100600.03;;;18.29;93.42
61645;BME280;47553;52.428;13.382;2022-09-09T07:45:41;100599.06;;;18.40;94.42
61645;BME280;47553;52.428;13.382;2022-09-09T07:47:42;100598.91;;;18.51;95.48
61645;BME280;47553;52.428;13.382;2022-09-09T07:49:43;100598.19;;;18.49;94.79
61645;BME280;47553;52.428;13.382;2022-09-09T07:51:46;100602.63;;;18.60;92.06
61645;BME280;47553;52.428;13.382;2022-09-09T07:53:51;100604.03;;;18.64;90.85
61645;BME280;47553;52.428;13.382;2022-09-09T07:55:54;100596.50;;;18.67;89.98
61645;BME280;47553;52.428;13.382;2022-09-09T07:57:56;100609.47;;;18.54;93.29
61645;BME280;47553;52.428;13.382;2022-09-09T07:59:57;100606.31;;;18.68;92.46
61645;BME280;47553;52.428;13.382;2022-09-09T08:01:59;100608.25;;;18.86;93.40
61645;BME280;47553;52.428;13.382;2022-09-09T08:04:02;100614.66;;;18.94;91.42
61645;BME280;47553;52.428;13.382;2022-09-09T08:06:06;100611.69;;;18.49;92.12
61645;BME280;47553;52.428;13.382;2022-09-09T08:08:08;100614.69;;;18.36;92.32
61645;BME280;47553;52.428;13.382;2022-09-09T08:10:10;100624.47;;;18.28;95.92
61645;BME280;47553;52.428;13.382;2022-09-09T08:12:13;100621.06;;;18.26;95.43
61645;BME280;47553;52.428;13.382;2022-09-09T08:14:14;100617.94;;;18.30;94.28
61645;BME280;47553;52.428;13.382;2022-09-09T08:16:17;100619.53;;;18.33;94.13
61645;BME280;47553;52.428;13.382;2022-09-09T08:18:20;100623.06;;;18.43;94.01
61645;BME280;47553;52.428;13.382;2022-09-09T08:20:21;100624.59;;;18.26;96.64
61645;BME280;47553;52.428;13.382;2022-09-09T08:22:23;100621.91;;;18.17;96.48
61645;BME280;47553;52.428;13.382;2022-09-09T08:24:24;100621.06;;;18.26;95.01
61645;BME280;47553;52.428;13.382;2022-09-09T08:26:27;100627.63;;;18.33;94.34
61645;BME280;47553;52.428;13.382;2022-09-09T08:28:30;100619.25;;;18.36;95.50
61645;BME280;47553;52.428;13.382;2022-09-09T08:30:32;100623.47;;;18.29;94.98
61645;BME280;47553;52.428;13.382;2022-09-09T08:32:33;100620.78;;;18.29;94.68
61645;BME280;47553;52.428;13.382;2022-09-09T08:34:35;100613.69;;;18.47;96.00
61645;BME280;47553;52.428;13.382;2022-09-09T08:36:43;100618.66;;;18.42;95.60
61645;BME280;47553;52.428;13.382;2022-09-09T08:38:47;100619.78;;;18.30;98.83
61645;BME280;47553;52.428;13.382;2022-09-09T08:40:52;100620.06;;;18.27;96.49
61645;BME280;47553;52.428;13.382;2022-09-09T08:42:59;100621.06;;;18.26;96.50
61645;BME280;47553;52.428;13.382;2022-09-09T08:45:18;100617.34;;;18.27;96.80
61645;BME280;47553;52.428;13.382;2022-09-09T08:47:27;100628.34;;;18.35;95.37
61645;BME280;47553;52.428;13.382;2022-09-09T08:49:46;100618.66;;;18.42;95.98
61645;BME280;47553;52.428;13.382;2022-09-09T08:51:50;100623.50;;;18.39;96.83
61645;BME280;47553;52.428;13.382;2022-09-09T08:53:53;100617.69;;;18.43;95.59
61645;BME280;47553;52.428;13.382;2022-09-09T08:56:00;100630.19;;;18.63;94.91
61645;BME280;47553;52.428;13.382;2022-09-09T08:58:09;100621.34;;;18.81;92.17
61645;BME280;47553;52.428;13.382;2022-09-09T09:00:13;100629.31;;;18.92;92.72
61645;BME280;47553;52.428;13.382;2022-09-09T09:02:17;100631.28;;;19.09;94.02
61645;BME280;47553;52.428;13.382;2022-09-09T09:04:33;100627.66;;;19.28;94.45
61645;BME280;47553;52.428;13.382;2022-09-09T09:06:47;100633.78;;;19.67;89.49
61645;BME280;47553;52.428;13.382;2022-09-09T09:08:57;100634.41;;;19.88;88.24
61645;BME280;47553;52.428;13.382;2022-09-09T09:11:02;100622.75;;;19.78;88.81
61645;BME280;47553;52.428;13.382;2022-09-09T09:13:03;100624.50;;;19.70;89.05
61645;BME280;47553;52.428;13.382;2022-09-09T09:15:16;100624.25;;;19.63;86.35
61645;BME280;47553;52.428;13.382;2022-09-09T09:17:21;100632.34;;;20.00;86.84
61645;BME280;47553;52.428;13.382;2022-09-09T09:19:25;100629.88;;;20.07;83.85
61645;BME280;47553;52.428;13.382;2022-09-09T09:21:34;100624.78;;;20.21;83.95
61645;BME280;47553;52.428;13.382;2022-09-09T09:23:42;100630.47;;;20.28;80.98
61645;BME280;47553;52.428;13.382;2022-09-09T09:25:46;100634.47;;;20.24;81.79
61645;BME280;47553;52.428;13.382;2022-09-09T09:27:52;100628.25;;;20.14;85.19
61645;BME280;47553;52.428;13.382;2022-09-09T09:30:00;100624.66;;;20.41;80.79
61645;BME280;47553;52.428;13.382;2022-09-09T09:32:24;100618.22;;;20.42;82.17
61645;BME280;47553;52.428;13.382;2022-09-09T09:34:27;100614.34;;;20.44;81.21
61645;BME280;47553;52.428;13.382;2022-09-09T09:36:34;100613.06;;;20.66;79.88
61645;BME280;47553;52.428;13.382;2022-09-09T09:38:36;100609.41;;;20.58;79.95
61645;BME280;47553;52.428;13.382;2022-09-09T09:40:59;100619.00;;;20.70;78.44
61645;BME280;47553;52.428;13.382;2022-09-09T09:43:00;100624.09;;;20.73;78.00
61645;BME280;47553;52.428;13.382;2022-09-09T09:45:08;100616.69;;;20.39;79.39
61645;BME280;47553;52.428;13.382;2022-09-09T09:47:12;100617.06;;;20.27;79.34
61645;BME280;47553;52.428;13.382;2022-09-09T09:49:15;100620.41;;;20.38;79.39
61645;BME280;47553;52.428;13.382;2022-09-09T09:51:18;100616.22;;;20.26;79.72
61645;BME280;47553;52.428;13.382;2022-09-09T09:53:24;100619.69;;;20.36;78.53
61645;BME280;47553;52.428;13.382;2022-09-09T09:55:28;100619.31;;;20.67;76.91
61645;BME280;47553;52.428;13.382;2022-09-09T09:57:31;100608.81;;;20.89;77.90
61645;BME280;47553;52.428;13.382;2022-09-09T09:59:35;100613.75;;;20.94;76.96
61645;BME280;47553;52.428;13.382;2022-09-09T10:01:40;100617.97;;;20.88;80.62
61645;BME280;47553;52.428;13.382;2022-09-09T10:03:50;100624.19;;;20.63;78.74
61645;BME280;47553;52.428;13.382;2022-09-09T10:05:54;100623.56;;;20.51;78.60
61645;BME280;47553;52.428;13.382;2022-09-09T10:08:10;100621.66;;;20.62;78.42
61645;BME280;47553;52.428;13.382;2022-09-09T10:10:15;100621.09;;;20.76;80.20
61645;BME280;47553;52.428;13.382;2022-09-09T10:12:28;100620.81;;;20.87;76.03
61645;BME280;47553;52.428;13.382;2022-09-09T10:14:38;100612.75;;;20.95;75.62
61645;BME280;47553;52.428;13.382;2022-09-09T10:16:55;100613.81;;;20.76;76.31
61645;BME280;47553;52.428;13.382;2022-09-09T10:19:03;100621.91;;;20.94;77.23
61645;BME280;47553;52.428;13.382;2022-09-09T10:21:18;100614.44;;;20.96;75.35
61645;BME280;47553;52.428;13.382;2022-09-09T10:23:32;100620.41;;;21.00;77.06
61645;BME280;47553;52.428;13.382;2022-09-09T10:25:52;100621.03;;;20.94;77.52
61645;BME280;47553;52.428;13.382;2022-09-09T10:28:10;100621.94;;;20.76;74.98
61645;BME280;47553;52.428;13.382;2022-09-09T10:30:21;100629.09;;;20.60;76.02
61645;BME280;47553;52.428;13.382;2022-09-09T10:32:37;100623.25;;;20.72;77.54
61645;BME280;47553;52.428;13.382;2022-09-09T10:34:53;100625.44;;;20.69;77.95
61645;BME280;47553;52.428;13.382;2022-09-09T10:36:58;100628.47;;;20.66;77.38
61645;BME280;47553;52.428;13.382;2022-09-09T10:39:04;100624.53;;;20.60;78.06